New Zealand markets open in 2 hours 1 minute
Explore/

Recent 52-week highs

Recent 52-week highs

13.90k followers30 symbols Watchlist by Yahoo Finance

Follow this list to discover and track stocks that have set 52-week highs within the last week. This list is generated daily, ranked by market cap and limited to the top 30 stocks that meet the criteria.

Curated by Yahoo Finance

Follow this list to discover and track stocks that have set 52-week highs within the last week. This list is generated daily, ranked by market cap and limited to the top 30 stocks that meet the criteria.

Background

Yahoo Finance employs sophisticated algorithms to monitor and detect trends in the global financial markets. We bring these insights to you in the form of watchlists.

Find other winning investment ideas with the Yahoo Finance Screener.

How are these weighted?

The stocks in this watchlist are weighted equally.

Performance

WatchlistChange today1-month return1-year returnTotal return
Recent 52-week highs+1.76%---
^GSPC+2.06%+9.15%-5.29%+4423.96%

30 symbols

SymbolCompany nameLast priceChange% changeMarket timeVolumeAvg vol (3-month)Market cap
VRTXVertex Pharmaceuticals Incorporated295.79-3.04-1.02%3:59 pm GMT-4933.14k1.63M75.86B
BF-ABrown-Forman Corporation73.88+0.85+1.16%3:59 pm GMT-416.78k45.43k36.04B
KKellogg Company75.535+0.34+0.45%3:59 pm GMT-41.68M2.84M25.69B
EBR-BCentrais Elétricas Brasileiras S.A. - Eletrobrás9.8-0.01-0.10%3:58 pm GMT-4287.95k70.97k22.55B
EBRCentrais Elétricas Brasileiras S.A. - Eletrobrás9.465-0.01-0.16%3:58 pm GMT-41.84M2.36M21.78B
BMRNBioMarin Pharmaceutical Inc.95.959+0.26+0.27%3:59 pm GMT-4759.38k1.18M17.80B
TEVATeva Pharmaceutical Industries Limited11.2+0.20+1.82%3:59 pm GMT-414.31M13.28M12.44B
NFENew Fortress Energy Inc.56.17+1.25+2.28%3:59 pm GMT-4734.36k1.08M11.66B
NBIXNeurocrine Biosciences, Inc.106.79-0.87-0.81%3:59 pm GMT-4699.49k741.02k10.21B
SRPTSarepta Therapeutics, Inc.113.12+4.02+3.68%3:59 pm GMT-4786.45k922.83k9.91B
HIIHuntington Ingalls Industries, Inc.227.39+1.90+0.84%3:59 pm GMT-4215.53k339.59k9.08B
CIG-CCompanhia Energética de Minas Gerais3.82+0.07+1.87%3:55 pm GMT-432.43k63.14k8.41B
IONSIonis Pharmaceuticals, Inc.46.1+1.84+4.16%3:59 pm GMT-4853.54k1.00M6.54B
KNSLKinsale Capital Group, Inc.272.33+8.02+3.03%3:59 pm GMT-494.90k97.25k6.24B
HXLHexcel Corporation64.13+1.47+2.35%3:59 pm GMT-4865.31k592.39k5.39B
ORAOrmat Technologies, Inc.91.72+1.81+2.01%3:59 pm GMT-4311.93k732.76k5.13B
CYTKCytokinetics, Incorporated52.75+0.25+0.48%3:59 pm GMT-41.07M1.40M4.97B
GBTGlobal Blood Therapeutics, Inc.66.8+0.21+0.32%3:59 pm GMT-44.96M2.45M4.51B
PRVAPrivia Health Group, Inc.36.4-0.40-1.09%3:59 pm GMT-41.43M830.87k3.95B
PTCTPTC Therapeutics, Inc.53.66+1.94+3.75%3:59 pm GMT-4393.86k797.46k3.84B
HAEHaemonetics Corporation73.59+6.00+8.88%3:59 pm GMT-4813.32k429.19k3.78B
AEISAdvanced Energy Industries, Inc.94.11+3.79+4.20%3:59 pm GMT-4103.38k189.02k3.53B
DYDycom Industries, Inc.107.97+1.90+1.79%3:59 pm GMT-4206.40k253.16k3.19B
ACAArcosa, Inc.64.05+2.05+3.31%3:59 pm GMT-4104.91k183.45k3.10B
EURNEuronav NV15.32-0.18-1.16%3:59 pm GMT-4790.75k1.53M3.09B
AINAlbany International Corp.94.555+2.97+3.24%3:58 pm GMT-474.82k121.13k2.94B
THSTreeHouse Foods, Inc.47.15+1.05+2.28%3:59 pm GMT-4742.84k419.28k2.64B
STNGScorpio Tankers Inc.42.09-0.74-1.73%3:59 pm GMT-4698.15k1.38M2.49B
IMCRImmunocore Holdings plc53.96+2.22+4.29%3:59 pm GMT-4414.11k209.93k2.37B